Time;durP1;ratioP1;P1;durP2;ratioP2;P2;SDS_P1;SDS_P2;PMS_P1;PMS_P2;Temp;Humidity;BMP_temperature;BMP_pressure;BME280_temperature;BME280_humidity;BME280_pressure;Samples;Min_cycle;Max_cycle;Signal;HPM_P1;HPM_P2
2023/11/17 00:01:01;;;;;;;8.75;3.42;;;5.50;99.90;;;;;;5029999;28;20030;-77
2023/11/17 00:03:29;;;;;;;9.10;3.22;;;5.60;99.90;;;;;;5029793;28;20057;-77
2023/11/17 00:05:56;;;;;;;9.52;3.72;;;5.50;99.90;;;;;;5012499;28;20030;-78
2023/11/17 00:08:22;;;;;;;7.03;3.28;;;5.70;99.90;;;;;;5029680;28;20117;-77
2023/11/17 00:10:47;;;;;;;5.07;3.75;;;6.30;99.90;;;;;;5014195;28;20105;-78
2023/11/17 00:13:13;;;;;;;5.10;3.15;;;6.00;99.90;;;;;;5013171;28;20407;-78
2023/11/17 00:15:38;;;;;;;6.63;3.83;;;5.60;99.90;;;;;;5012831;28;20030;-77
2023/11/17 00:18:04;;;;;;;3.45;3.00;;;5.50;99.90;;;;;;5029574;28;20022;-78
2023/11/17 00:20:30;;;;;;;4.82;3.75;;;5.60;99.90;;;;;;5012914;28;20087;-78
2023/11/17 00:22:56;;;;;;;4.78;3.58;;;5.60;99.90;;;;;;5029576;28;20507;-78
2023/11/17 00:25:22;;;;;;;4.25;3.13;;;6.60;99.90;;;;;;5013927;28;20030;-77
2023/11/17 00:27:47;;;;;;;8.25;3.70;;;6.10;99.90;;;;;;5029288;28;20029;-77
2023/11/17 00:30:14;;;;;;;6.47;3.88;;;6.00;99.90;;;;;;5029276;28;20112;-78
2023/11/17 00:32:40;;;;;;;5.78;3.70;;;5.50;99.90;;;;;;5012793;28;20026;-77
2023/11/17 00:35:07;;;;;;;5.28;3.38;;;5.60;99.90;;;;;;5028943;28;20050;-78
2023/11/17 00:37:32;;;;;;;4.07;2.90;;;5.40;99.90;;;;;;5012665;28;20408;-78
2023/11/17 00:39:58;;;;;;;7.10;3.05;;;5.60;99.90;;;;;;5012764;28;20030;-78
2023/11/17 00:42:24;;;;;;;4.22;3.67;;;5.10;99.90;;;;;;5029233;28;20499;-77
2023/11/17 00:44:49;;;;;;;4.78;3.67;;;6.40;99.90;;;;;;5028734;28;20036;-78
2023/11/17 00:47:15;;;;;;;5.13;3.28;;;5.80;99.90;;;;;;5013963;28;20076;-77
2023/11/17 00:49:42;;;;;;;4.95;3.60;;;5.10;99.90;;;;;;5029054;28;20022;-78
2023/11/17 00:52:08;;;;;;;5.57;3.67;;;5.00;99.90;;;;;;5012233;28;20080;-77
2023/11/17 00:54:42;;;;;;;5.63;3.60;;;5.00;99.90;;;;;;5028669;28;20030;-78
2023/11/17 00:57:12;;;;;;;2.85;2.47;;;5.00;99.90;;;;;;5012406;28;20029;-78
2023/11/17 00:59:38;;;;;;;5.55;3.20;;;4.90;99.90;;;;;;5013779;28;20389;-77
2023/11/17 01:02:04;;;;;;;4.28;2.78;;;4.90;99.90;;;;;;5013176;28;20105;-78
2023/11/17 01:04:31;;;;;;;4.65;2.88;;;5.50;99.90;;;;;;5027788;28;20022;-79
2023/11/17 01:06:56;;;;;;;4.30;3.08;;;4.60;99.90;;;;;;5028364;28;20169;-78
2023/11/17 01:09:25;;;;;;;4.93;3.28;;;4.80;99.90;;;;;;5028701;28;20116;-78
2023/11/17 01:11:54;;;;;;;5.65;3.63;;;4.80;99.90;;;;;;5028345;28;20030;-78
2023/11/17 01:14:20;;;;;;;5.07;3.38;;;4.80;99.90;;;;;;5028250;28;20018;-79
2023/11/17 01:16:46;;;;;;;4.93;3.42;;;4.80;99.90;;;;;;5028273;28;20116;-79
2023/11/17 01:19:12;;;;;;;4.82;2.80;;;4.90;99.90;;;;;;5028544;28;20072;-78
2023/11/17 01:21:38;;;;;;;2.90;2.63;;;4.80;99.90;;;;;;5028367;28;20026;-78
2023/11/17 01:24:05;;;;;;;5.22;3.95;;;4.90;99.90;;;;;;5028220;28;20061;-79
2023/11/17 01:26:31;;;;;;;3.13;2.53;;;4.90;99.90;;;;;;5028427;28;20484;-78
2023/11/17 01:28:57;;;;;;;4.82;2.88;;;4.80;99.90;;;;;;5012959;28;20036;-79
2023/11/17 01:31:23;;;;;;;4.85;3.28;;;5.00;99.90;;;;;;5013170;28;20392;-77
2023/11/17 01:33:49;;;;;;;3.92;3.08;;;5.00;99.90;;;;;;5030757;28;20018;-79
2023/11/17 01:36:18;;;;;;;3.65;2.95;;;5.00;99.90;;;;;;5021983;28;20026;-78
2023/11/17 01:38:44;;;;;;;3.55;2.80;;;5.70;99.90;;;;;;5013038;28;20057;-77
2023/11/17 01:41:10;;;;;;;4.53;3.08;;;5.00;99.90;;;;;;5012872;28;20029;-78
2023/11/17 01:43:35;;;;;;;3.47;3.17;;;5.10;99.90;;;;;;5012666;28;20107;-78
2023/11/17 01:46:02;;;;;;;3.40;3.10;;;6.30;99.90;;;;;;5027937;28;20531;-78
2023/11/17 01:48:28;;;;;;;5.43;3.20;;;5.20;99.90;;;;;;5012778;28;20080;-77
2023/11/17 01:50:55;;;;;;;6.13;2.63;;;5.10;99.90;;;;;;5012687;28;20029;-77
2023/11/17 01:53:21;;;;;;;4.20;3.00;;;5.80;99.90;;;;;;5012770;28;20046;-78
2023/11/17 01:55:47;;;;;;;4.18;3.35;;;5.10;99.90;;;;;;5027858;28;20053;-77
2023/11/17 01:58:14;;;;;;;5.05;3.22;;;5.80;99.90;;;;;;5028048;28;20080;-78
2023/11/17 02:00:40;;;;;;;3.22;2.78;;;5.10;99.90;;;;;;5027724;28;20446;-77
2023/11/17 02:03:07;;;;;;;6.22;2.80;;;5.00;99.90;;;;;;5027814;28;20034;-78
2023/11/17 02:05:34;;;;;;;5.30;2.92;;;6.10;99.90;;;;;;5027702;28;20022;-78
2023/11/17 02:08:12;;;;;;;5.03;3.30;;;5.20;99.90;;;;;;5028118;28;20034;-77
2023/11/17 02:10:43;;;;;;;3.50;2.90;;;5.20;99.90;;;;;;5012736;28;20022;-78
2023/11/17 02:13:26;;;;;;;3.42;2.88;;;5.20;99.90;;;;;;5028219;28;20026;-78
2023/11/17 02:15:54;;;;;;;7.38;3.25;;;5.20;99.90;;;;;;5028177;28;20401;-78
2023/11/17 02:18:22;;;;;;;4.70;3.58;;;6.30;99.90;;;;;;5031933;28;20400;-77
2023/11/17 02:20:53;;;;;;;4.03;3.38;;;5.90;99.90;;;;;;5016419;28;20029;-78
2023/11/17 02:23:20;;;;;;;5.10;3.78;;;6.40;99.90;;;;;;5031751;28;20029;-78
2023/11/17 02:26:00;;;;;;;5.90;3.33;;;6.40;99.90;;;;;;5016330;28;20025;-78
2023/11/17 02:28:42;;;;;;;3.78;3.33;;;5.40;99.90;;;;;;5031506;28;20026;-78
2023/11/17 02:31:17;;;;;;;3.72;3.13;;;5.50;99.90;;;;;;5031678;28;20026;-77
2023/11/17 02:33:49;;;;;;;4.93;3.55;;;5.40;99.90;;;;;;5031473;28;20117;-77
2023/11/17 02:36:19;;;;;;;7.57;3.05;;;5.30;99.90;;;;;;5031326;28;20089;-78
2023/11/17 02:39:25;;;;;;;4.25;3.45;;;5.30;99.90;;;;;;5015940;28;20026;-77
2023/11/17 02:41:57;;;;;;;5.75;3.08;;;5.20;99.90;;;;;;5015961;28;20034;-78
2023/11/17 02:44:32;;;;;;;4.13;2.95;;;5.10;99.90;;;;;;5031162;28;20044;-78
2023/11/17 02:46:58;;;;;;;4.80;3.30;;;5.10;99.90;;;;;;5031291;28;20076;-78
2023/11/17 02:49:35;;;;;;;6.45;3.60;;;5.10;99.90;;;;;;5016066;28;20536;-79
2023/11/17 02:52:24;;;;;;;7.05;4.03;;;5.20;99.90;;;;;;5031502;28;20029;-78
2023/11/17 02:54:50;;;;;;;5.20;3.42;;;5.30;99.90;;;;;;5014670;28;20029;-78
2023/11/17 02:57:21;;;;;;;4.75;3.20;;;5.30;99.90;;;;;;5031301;28;20107;-78
2023/11/17 02:59:47;;;;;;;4.43;3.45;;;4.60;99.90;;;;;;5031298;28;20102;-78
2023/11/17 03:02:15;;;;;;;4.57;2.88;;;5.30;99.90;;;;;;5030684;28;20069;-78
2023/11/17 03:04:42;;;;;;;5.68;3.30;;;6.00;99.90;;;;;;5014246;28;20511;-78
2023/11/17 03:07:07;;;;;;;3.78;2.95;;;5.20;99.90;;;;;;5015500;28;20037;-78
2023/11/17 03:09:33;;;;;;;7.88;3.85;;;5.60;99.90;;;;;;5030929;28;20108;-78
2023/11/17 03:12:00;;;;;;;4.47;2.95;;;4.40;99.90;;;;;;5015117;28;20061;-78
2023/11/17 03:14:27;;;;;;;3.78;2.85;;;5.90;99.90;;;;;;5030574;28;20025;-77
2023/11/17 03:16:59;;;;;;;4.60;2.90;;;6.40;99.90;;;;;;5030250;28;20022;-78
2023/11/17 03:19:30;;;;;;;4.60;3.13;;;5.20;99.90;;;;;;5015220;28;20569;-78
2023/11/17 03:21:56;;;;;;;4.10;3.33;;;5.10;99.90;;;;;;5013857;28;20033;-78
2023/11/17 03:24:24;;;;;;;5.20;3.45;;;5.40;99.90;;;;;;5015209;28;20096;-78
2023/11/17 03:26:56;;;;;;;3.78;3.35;;;5.30;99.90;;;;;;5014925;28;20026;-78
2023/11/17 03:29:23;;;;;;;4.55;3.17;;;5.30;99.90;;;;;;5014341;28;20555;-78
2023/11/17 03:31:52;;;;;;;4.90;2.97;;;5.40;99.90;;;;;;5030178;28;20025;-78
2023/11/17 03:34:23;;;;;;;5.88;3.33;;;5.60;99.90;;;;;;5013806;28;20029;-77
2023/11/17 03:37:02;;;;;;;3.97;2.95;;;5.40;99.90;;;;;;5014845;28;20084;-78
2023/11/17 03:39:32;;;;;;;10.98;3.70;;;5.40;99.90;;;;;;5030152;28;20022;-78
2023/11/17 03:42:00;;;;;;;5.45;3.85;;;5.50;99.90;;;;;;5014802;28;20026;-78
2023/11/17 03:44:27;;;;;;;5.93;3.00;;;5.40;99.90;;;;;;5014780;28;20046;-78
2023/11/17 03:46:58;;;;;;;5.07;3.47;;;6.20;99.90;;;;;;5029883;28;20022;-78
2023/11/17 03:49:25;;;;;;;4.30;3.30;;;5.60;99.90;;;;;;5013465;28;20050;-79
2023/11/17 03:51:53;;;;;;;3.95;3.55;;;6.10;99.90;;;;;;5014356;28;20046;-78
2023/11/17 03:54:22;;;;;;;6.95;3.45;;;6.40;99.90;;;;;;5029717;28;20092;-78
2023/11/17 03:56:52;;;;;;;9.05;4.30;;;5.40;99.90;;;;;;5028896;28;20488;-79
2023/11/17 03:59:19;;;;;;;6.00;4.07;;;5.50;99.90;;;;;;5014633;28;20025;-78
2023/11/17 04:01:48;;;;;;;7.38;3.58;;;5.50;99.90;;;;;;5014431;28;20080;-78
2023/11/17 04:04:18;;;;;;;4.15;3.13;;;5.50;99.90;;;;;;5029284;28;20025;-79
2023/11/17 04:06:44;;;;;;;10.70;3.92;;;6.40;99.90;;;;;;5014252;28;20029;-78
2023/11/17 04:09:15;;;;;;;10.57;3.80;;;5.60;99.90;;;;;;5029397;28;20080;-78
2023/11/17 04:11:45;;;;;;;6.05;3.78;;;5.10;99.90;;;;;;5013925;28;20032;-78
2023/11/17 04:14:14;;;;;;;6.60;3.67;;;5.50;99.90;;;;;;5012932;28;20022;-78
2023/11/17 04:16:40;;;;;;;6.10;3.40;;;5.50;99.90;;;;;;5029301;28;20034;-79
2023/11/17 04:19:06;;;;;;;4.30;3.35;;;5.50;99.90;;;;;;5029386;28;20124;-78
2023/11/17 04:21:33;;;;;;;5.38;3.80;;;5.90;99.90;;;;;;5013899;28;20030;-79
2023/11/17 04:23:59;;;;;;;4.78;2.75;;;5.50;99.90;;;;;;5013769;28;20030;-78
2023/11/17 04:26:24;;;;;;;6.15;3.63;;;6.30;99.90;;;;;;5013935;28;20068;-78
2023/11/17 04:28:50;;;;;;;5.30;3.13;;;5.70;99.90;;;;;;5029002;28;20424;-78
2023/11/17 04:31:16;;;;;;;7.45;3.33;;;5.50;99.90;;;;;;5014041;28;20022;-78
2023/11/17 04:33:41;;;;;;;4.32;3.35;;;6.30;99.90;;;;;;5013805;28;20018;-78
2023/11/17 04:36:11;;;;;;;4.75;3.08;;;5.70;99.90;;;;;;5028807;28;20497;-78
2023/11/17 04:38:38;;;;;;;6.43;3.80;;;5.60;99.90;;;;;;5028916;28;20030;-78
2023/11/17 04:41:04;;;;;;;8.07;3.67;;;6.80;99.90;;;;;;5013557;28;20026;-78
2023/11/17 04:43:30;;;;;;;6.10;3.15;;;5.60;99.90;;;;;;5012676;28;20105;-78
2023/11/17 04:45:55;;;;;;;7.30;4.28;;;5.50;99.90;;;;;;5028624;28;20112;-78
2023/11/17 04:48:21;;;;;;;6.28;3.90;;;5.70;99.90;;;;;;5028905;28;20030;-78
2023/11/17 04:50:46;;;;;;;5.93;4.30;;;6.30;99.90;;;;;;5028885;28;20105;-77
2023/11/17 04:53:12;;;;;;;6.20;3.92;;;5.50;99.90;;;;;;5013585;28;20130;-78
2023/11/17 04:55:38;;;;;;;4.60;3.63;;;6.30;99.90;;;;;;5028774;28;20389;-78
2023/11/17 04:58:04;;;;;;;8.05;3.72;;;6.20;99.90;;;;;;5013653;28;20053;-78
2023/11/17 05:00:31;;;;;;;3.58;3.25;;;5.60;99.90;;;;;;5028742;28;20026;-78
2023/11/17 05:03:00;;;;;;;7.45;4.22;;;5.80;99.90;;;;;;5013519;28;20030;-77
2023/11/17 05:05:27;;;;;;;6.43;4.63;;;6.90;99.90;;;;;;5012282;28;20395;-78
2023/11/17 05:07:52;;;;;;;4.88;3.67;;;6.40;99.90;;;;;;5028850;28;20488;-78
2023/11/17 05:10:21;;;;;;;7.05;3.28;;;6.20;99.90;;;;;;5035180;28;20026;-78
2023/11/17 05:12:52;;;;;;;4.60;3.55;;;6.50;99.90;;;;;;5020128;28;20022;-77
2023/11/17 05:15:20;;;;;;;8.73;4.60;;;5.60;99.90;;;;;;5028741;28;20018;-78
2023/11/17 05:17:49;;;;;;;7.65;4.63;;;5.60;99.90;;;;;;5028602;28;20117;-77
2023/11/17 05:20:19;;;;;;;8.68;5.20;;;6.40;99.90;;;;;;5013051;28;20569;-77
2023/11/17 05:22:47;;;;;;;7.75;4.90;;;5.70;99.90;;;;;;5013218;28;20046;-77
2023/11/17 05:25:14;;;;;;;8.05;4.82;;;5.70;99.90;;;;;;5013073;28;20504;-78
2023/11/17 05:27:41;;;;;;;6.35;4.10;;;5.60;99.90;;;;;;5013001;28;20022;-77
2023/11/17 05:30:08;;;;;;;9.40;4.10;;;5.60;99.90;;;;;;5028303;28;20432;-78
2023/11/17 05:32:34;;;;;;;8.50;5.45;;;5.60;99.90;;;;;;5012783;28;20488;-77
2023/11/17 05:35:01;;;;;;;7.55;4.75;;;5.80;99.90;;;;;;5012615;28;20030;-77
2023/11/17 05:37:27;;;;;;;7.00;4.80;;;6.10;99.90;;;;;;5028153;28;20072;-77
2023/11/17 05:39:57;;;;;;;7.63;4.82;;;5.80;99.90;;;;;;5028393;28;20033;-78
2023/11/17 05:42:22;;;;;;;7.57;4.68;;;6.00;99.90;;;;;;5012709;28;20022;-78
2023/11/17 05:44:49;;;;;;;7.22;4.25;;;6.20;99.90;;;;;;5012594;28;20068;-78
2023/11/17 05:47:15;;;;;;;13.82;5.07;;;5.70;99.90;;;;;;5012752;28;20488;-79
2023/11/17 05:49:44;;;;;;;9.77;4.30;;;6.90;99.90;;;;;;5028018;28;20037;-78
2023/11/17 05:52:14;;;;;;;8.18;4.57;;;6.30;99.90;;;;;;5012216;28;20022;-78
2023/11/17 05:54:45;;;;;;;6.72;3.92;;;5.90;99.90;;;;;;5027767;28;20452;-78
2023/11/17 05:57:12;;;;;;;6.38;3.92;;;5.90;99.90;;;;;;5012793;28;20033;-78
2023/11/17 05:59:38;;;;;;;7.88;4.13;;;6.60;99.90;;;;;;5012893;28;20080;-77
2023/11/17 06:02:04;;;;;;;5.70;4.60;;;6.80;99.90;;;;;;5027870;28;20018;-78
2023/11/17 06:04:30;;;;;;;12.30;5.88;;;6.10;99.90;;;;;;5028191;28;20054;-78
2023/11/17 06:06:56;;;;;;;24.77;10.05;;;6.20;99.90;;;;;;5027885;28;20032;-78
2023/11/17 06:09:22;;;;;;;22.80;11.02;;;6.10;99.90;;;;;;5011240;28;20470;-77
2023/11/17 06:11:48;;;;;;;13.95;8.95;;;6.20;99.90;;;;;;5011193;28;20045;-77
2023/11/17 06:14:14;;;;;;;5.63;5.00;;;6.60;99.90;;;;;;5011095;28;20420;-78
2023/11/17 06:16:40;;;;;;;8.07;5.35;;;6.30;99.90;;;;;;5027349;28;20080;-78
2023/11/17 06:19:06;;;;;;;8.18;5.25;;;6.40;99.90;;;;;;5012552;28;20411;-79
2023/11/17 06:21:32;;;;;;;12.90;5.03;;;6.30;99.90;;;;;;5018532;28;20041;-78
2023/11/17 06:23:57;;;;;;;12.85;5.47;;;7.00;99.90;;;;;;5037420;28;20030;-79
2023/11/17 06:26:23;;;;;;;12.60;5.10;;;6.50;99.90;;;;;;5036072;28;20535;-78
2023/11/17 06:28:49;;;;;;;6.95;4.32;;;6.40;99.90;;;;;;5035385;28;20040;-79
2023/11/17 06:31:14;;;;;;;9.32;6.68;;;6.40;99.90;;;;;;5037652;28;20033;-79
2023/11/17 06:33:40;;;;;;;9.68;6.00;;;6.50;99.90;;;;;;5020638;28;20022;-78
2023/11/17 06:36:08;;;;;;;6.72;3.88;;;7.00;99.90;;;;;;5022286;28;20049;-78
2023/11/17 06:38:34;;;;;;;9.90;4.88;;;6.90;99.90;;;;;;5017558;28;20022;-79
2023/11/17 06:41:00;;;;;;;7.18;4.47;;;7.00;99.90;;;;;;5021291;28;20067;-79
2023/11/17 06:43:28;;;;;;;11.20;4.90;;;7.60;99.90;;;;;;5023502;28;20025;-79
2023/11/17 06:45:54;;;;;;;7.82;4.93;;;7.60;99.90;;;;;;5021103;28;20048;-79
2023/11/17 06:48:20;;;;;;;9.10;4.40;;;7.00;99.90;;;;;;5019560;28;20026;-78
2023/11/17 06:50:48;;;;;;;6.50;4.38;;;6.60;99.90;;;;;;5019642;28;20018;-78
2023/11/17 06:53:14;;;;;;;11.55;5.13;;;6.60;99.90;;;;;;5019831;28;20057;-79
2023/11/17 06:55:39;;;;;;;6.25;3.47;;;6.70;99.90;;;;;;5031425;28;20030;-78
2023/11/17 06:58:06;;;;;;;6.13;4.03;;;6.70;99.90;;;;;;5013126;28;20052;-79
2023/11/17 07:00:32;;;;;;;7.65;4.20;;;6.70;99.90;;;;;;5012069;28;20057;-78
2023/11/17 07:03:00;;;;;;;5.53;3.97;;;7.00;99.90;;;;;;5012742;28;20077;-78
2023/11/17 07:05:26;;;;;;;6.38;3.58;;;6.80;99.90;;;;;;5014306;28;20075;-78
2023/11/17 07:07:57;;;;;;;5.68;3.22;;;7.00;99.90;;;;;;5014554;28;20423;-78
2023/11/17 07:10:25;;;;;;;7.25;4.32;;;7.00;99.90;;;;;;5013971;28;20045;-79
2023/11/17 07:12:52;;;;;;;6.97;4.95;;;7.10;99.90;;;;;;5015952;28;20026;-78
2023/11/17 07:15:18;;;;;;;10.73;5.78;;;7.00;99.90;;;;;;5015897;28;20477;-78
2023/11/17 07:17:45;;;;;;;9.77;4.85;;;7.10;99.90;;;;;;5014579;28;20034;-78
2023/11/17 07:20:11;;;;;;;11.00;4.93;;;7.00;99.90;;;;;;5015201;28;20032;-78
2023/11/17 07:22:41;;;;;;;8.05;4.32;;;7.10;99.90;;;;;;5014245;28;20504;-78
2023/11/17 07:25:10;;;;;;;8.82;5.13;;;7.20;99.90;;;;;;5014485;28;20405;-79
2023/11/17 07:27:37;;;;;;;6.53;3.88;;;7.20;99.90;;;;;;5010139;28;20404;-79
2023/11/17 07:30:04;;;;;;;9.73;4.40;;;7.40;99.90;;;;;;5013730;28;20084;-79
2023/11/17 07:32:30;;;;;;;8.88;3.97;;;7.30;99.90;;;;;;5030271;28;20054;-78
2023/11/17 07:34:56;;;;;;;5.93;4.13;;;7.50;99.90;;;;;;5014914;28;20021;-78
2023/11/17 07:37:24;;;;;;;6.00;4.53;;;7.60;99.90;;;;;;5015051;28;20105;-77
2023/11/17 07:39:49;;;;;;;6.78;4.82;;;7.60;99.90;;;;;;5013793;28;20032;-79
2023/11/17 07:42:15;;;;;;;6.68;5.60;;;7.60;99.90;;;;;;5030480;28;20026;-77
2023/11/17 07:44:40;;;;;;;22.95;10.13;;;7.40;99.90;;;;;;5014174;28;20526;-78
2023/11/17 07:47:06;;;;;;;21.70;7.75;;;7.60;99.90;;;;;;5013576;28;20022;-78
2023/11/17 07:49:34;;;;;;;7.88;5.15;;;7.30;99.90;;;;;;5013880;28;20022;-78
2023/11/17 07:52:00;;;;;;;6.32;4.35;;;7.30;99.90;;;;;;5013790;28;20029;-78
2023/11/17 07:54:25;;;;;;;5.22;3.88;;;8.20;99.90;;;;;;5014595;28;20026;-78
2023/11/17 07:56:51;;;;;;;3.60;1.42;;;8.40;99.90;;;;;;5014053;28;20072;-78
2023/11/17 07:59:19;;;;;;;0.38;0.38;;;8.10;99.90;;;;;;5013268;28;20103;-78
2023/11/17 08:01:45;;;;;;;1.55;0.20;;;8.40;99.90;;;;;;5013762;28;20034;-79
2023/11/17 08:04:11;;;;;;;0.10;0.10;;;8.50;99.90;;;;;;5013831;28;20026;-78
2023/11/17 08:06:37;;;;;;;0.20;0.20;;;8.80;99.90;;;;;;5014666;28;20032;-78
2023/11/17 08:09:04;;;;;;;0.40;0.40;;;9.00;99.90;;;;;;5015029;28;20173;-78
2023/11/17 08:11:30;;;;;;;0.63;0.10;;;9.10;99.90;;;;;;5013271;28;20117;-78
2023/11/17 08:13:57;;;;;;;0.20;0.20;;;9.10;99.60;;;;;;5029785;28;20113;-79
2023/11/17 08:16:23;;;;;;;0.38;0.30;;;9.20;99.20;;;;;;5013429;28;20022;-78
2023/11/17 08:18:50;;;;;;;0.30;0.15;;;9.20;97.50;;;;;;5014618;28;20022;-78
2023/11/17 08:21:17;;;;;;;0.20;0.20;;;9.30;96.80;;;;;;5014856;28;20041;-79
2023/11/17 08:23:42;;;;;;;0.10;0.10;;;9.30;97.20;;;;;;5014545;28;20026;-79
2023/11/17 08:26:08;;;;;;;0.08;0.08;;;9.40;96.60;;;;;;5014482;28;20538;-79
2023/11/17 08:28:34;;;;;;;0.25;0.10;;;9.40;96.20;;;;;;5014344;28;20034;-79
2023/11/17 08:31:00;;;;;;;0.10;0.10;;;9.50;95.80;;;;;;5014254;28;20030;-79
2023/11/17 08:33:27;;;;;;;0.30;0.30;;;9.50;93.60;;;;;;5014202;28;20576;-79
2023/11/17 08:35:54;;;;;;;0.30;0.30;;;9.40;92.20;;;;;;5012610;28;20033;-79
2023/11/17 08:38:20;;;;;;;0.00;0.00;;;9.40;92.00;;;;;;5012804;28;20034;-79
2023/11/17 08:40:47;;;;;;;0.00;0.00;;;9.40;91.20;;;;;;5014139;28;20344;-79
2023/11/17 08:43:17;;;;;;;0.00;0.00;;;9.50;91.90;;;;;;5029912;28;20026;-79
2023/11/17 08:45:44;;;;;;;0.00;0.00;;;9.50;91.10;;;;;;5015721;28;20030;-79
2023/11/17 08:48:10;;;;;;;0.10;0.10;;;9.50;90.20;;;;;;5021453;28;20463;-79
2023/11/17 08:50:35;;;;;;;0.00;0.00;;;9.50;90.40;;;;;;5015065;28;20022;-79
2023/11/17 08:53:01;;;;;;;0.08;0.08;;;9.40;90.30;;;;;;5013310;28;20022;-79
2023/11/17 08:55:27;;;;;;;0.22;0.22;;;9.40;90.40;;;;;;5014061;28;20022;-79
2023/11/17 08:57:54;;;;;;;0.00;0.00;;;9.40;90.20;;;;;;5029192;28;20030;-79
2023/11/17 09:00:24;;;;;;;0.08;0.08;;;9.40;88.20;;;;;;5013929;28;20030;-79
2023/11/17 09:02:51;;;;;;;0.30;0.00;;;9.40;89.90;;;;;;5013131;28;20523;-79
2023/11/17 09:05:19;;;;;;;0.00;0.00;;;9.50;90.40;;;;;;5013615;28;20108;-79
2023/11/17 09:07:47;;;;;;;0.03;0.03;;;9.30;88.70;;;;;;5013805;28;20101;-79
2023/11/17 09:10:14;;;;;;;0.10;0.10;;;9.40;88.90;;;;;;5012139;28;20045;-79
2023/11/17 09:12:42;;;;;;;0.20;0.20;;;9.40;87.40;;;;;;5012528;28;20029;-79
2023/11/17 09:15:15;;;;;;;1.55;0.20;;;9.40;88.20;;;;;;5013589;28;20361;-79
2023/11/17 09:17:41;;;;;;;0.20;0.10;;;9.40;87.80;;;;;;5012705;28;20029;-79
2023/11/17 09:20:09;;;;;;;0.15;0.15;;;9.40;88.10;;;;;;5012366;28;20396;-79
2023/11/17 09:22:35;;;;;;;0.63;0.50;;;9.40;88.30;;;;;;5012524;28;20022;-79
2023/11/17 09:25:03;;;;;;;0.68;0.32;;;9.40;87.80;;;;;;5011957;28;20057;-79
2023/11/17 09:27:28;;;;;;;0.28;0.20;;;9.40;86.90;;;;;;5011780;28;20030;-79
2023/11/17 09:29:54;;;;;;;0.00;0.00;;;9.40;88.00;;;;;;5013774;28;20109;-79
2023/11/17 09:32:20;;;;;;;0.00;0.00;;;9.50;86.40;;;;;;5015180;28;20033;-80
2023/11/17 09:34:45;;;;;;;0.00;0.00;;;9.40;86.60;;;;;;5012045;28;20488;-81
2023/11/17 09:37:11;;;;;;;0.20;0.20;;;9.40;86.80;;;;;;5012508;28;20018;-80
2023/11/17 09:39:40;;;;;;;0.30;0.30;;;9.60;88.20;;;;;;5012373;28;20021;-80
2023/11/17 09:42:07;;;;;;;0.00;0.00;;;9.60;87.20;;;;;;5013594;28;20068;-80
2023/11/17 09:44:38;;;;;;;0.15;0.13;;;9.60;85.90;;;;;;5012411;28;20025;-80
2023/11/17 09:47:18;;;;;;;0.20;0.20;;;9.60;86.10;;;;;;5013639;28;20029;-80
2023/11/17 09:49:47;;;;;;;0.10;0.00;;;9.60;85.80;;;;;;5012066;28;20026;-80
2023/11/17 09:52:15;;;;;;;0.17;0.17;;;9.70;84.70;;;;;;5011847;28;20029;-80
2023/11/17 09:54:43;;;;;;;0.70;0.20;;;9.70;85.50;;;;;;5011892;28;20026;-80
2023/11/17 09:57:11;;;;;;;0.00;0.00;;;9.80;85.10;;;;;;5014140;28;20097;-80
2023/11/17 09:59:42;;;;;;;0.38;0.20;;;9.80;83.10;;;;;;5013253;28;20026;-79
2023/11/17 10:02:17;;;;;;;0.10;0.10;;;10.10;86.60;;;;;;5013026;28;20033;-79
2023/11/17 10:04:42;;;;;;;0.10;0.10;;;10.00;81.70;;;;;;5011964;28;20029;-80
2023/11/17 10:07:09;;;;;;;0.20;0.20;;;10.00;82.10;;;;;;5013666;28;20022;-80
2023/11/17 10:09:37;;;;;;;0.30;0.10;;;9.90;83.00;;;;;;5011935;28;20038;-79
2023/11/17 10:12:05;;;;;;;0.03;0.03;;;9.90;82.10;;;;;;4993293;28;20034;-80
2023/11/17 10:14:33;;;;;;;0.20;0.20;;;9.90;80.80;;;;;;4993420;28;20019;-80
2023/11/17 10:17:03;;;;;;;0.30;0.30;;;10.00;82.00;;;;;;4992470;28;20109;-80
2023/11/17 10:19:29;;;;;;;0.10;0.10;;;10.00;80.20;;;;;;4992410;28;20030;-79
2023/11/17 10:21:55;;;;;;;0.20;0.20;;;9.90;81.30;;;;;;4992015;28;20035;-80
2023/11/17 10:24:22;;;;;;;0.05;0.05;;;10.10;82.30;;;;;;4993134;28;20029;-79
2023/11/17 10:26:48;;;;;;;0.00;0.00;;;10.20;80.20;;;;;;4992924;28;20026;-79
2023/11/17 10:29:14;;;;;;;3.30;0.10;;;10.30;79.20;;;;;;4991465;28;20031;-79
2023/11/17 10:31:42;;;;;;;0.00;0.00;;;10.30;79.30;;;;;;4992345;28;20057;-77
2023/11/17 10:34:12;;;;;;;0.03;0.03;;;10.50;79.00;;;;;;4997469;28;20021;-77
2023/11/17 10:36:56;;;;;;;0.28;0.28;;;10.60;78.10;;;;;;5002796;28;20022;-76
2023/11/17 10:39:22;;;;;;;0.20;0.17;;;10.60;77.70;;;;;;5015709;28;20077;-77
2023/11/17 10:41:48;;;;;;;0.35;0.30;;;10.60;77.70;;;;;;5015709;28;20029;-77
2023/11/17 10:44:19;;;;;;;0.38;0.38;;;10.60;76.40;;;;;;5015594;28;20030;-78
2023/11/17 10:46:45;;;;;;;0.88;0.60;;;10.50;75.80;;;;;;5030977;28;20026;-78
2023/11/17 10:49:15;;;;;;;0.15;0.15;;;10.40;78.00;;;;;;5014277;28;20404;-78
2023/11/17 10:51:49;;;;;;;0.20;0.15;;;10.40;75.80;;;;;;5014210;28;20026;-78
2023/11/17 10:54:15;;;;;;;0.30;0.30;;;10.40;76.60;;;;;;5015556;28;20021;-79
2023/11/17 10:56:42;;;;;;;0.73;0.50;;;10.30;77.30;;;;;;5014197;28;20022;-77
2023/11/17 10:59:17;;;;;;;0.10;0.10;;;10.20;77.10;;;;;;5014066;28;20026;-78
2023/11/17 11:01:43;;;;;;;0.15;0.15;;;10.10;75.70;;;;;;5013788;28;20124;-77
2023/11/17 11:04:14;;;;;;;0.93;0.30;;;10.10;76.40;;;;;;5013295;28;20449;-78
2023/11/17 11:06:44;;;;;;;0.47;0.13;;;10.00;76.80;;;;;;5013931;28;20040;-77
2023/11/17 11:09:16;;;;;;;0.10;0.10;;;10.00;75.50;;;;;;5013653;28;20065;-78
2023/11/17 11:11:50;;;;;;;0.03;0.03;;;10.10;76.30;;;;;;5025526;23;20045;-78
2023/11/17 11:14:20;;;;;;;0.50;0.22;;;10.20;75.40;;;;;;5037394;28;20045;-79
2023/11/17 11:16:46;;;;;;;0.13;0.10;;;10.30;75.80;;;;;;5021749;28;20022;-79
2023/11/17 11:19:14;;;;;;;0.10;0.10;;;10.40;75.30;;;;;;5023197;28;20029;-77
2023/11/17 11:21:40;;;;;;;3.00;0.20;;;10.50;74.90;;;;;;5020029;28;20030;-79
2023/11/17 11:24:08;;;;;;;0.10;0.10;;;10.50;75.30;;;;;;5020081;28;20025;-77
2023/11/17 11:26:38;;;;;;;0.38;0.20;;;10.50;75.50;;;;;;5019318;28;20026;-78
2023/11/17 11:29:05;;;;;;;0.10;0.10;;;10.60;74.00;;;;;;5020461;28;20026;-78
2023/11/17 11:31:32;;;;;;;1.15;0.17;;;10.70;70.80;;;;;;5019471;28;20025;-77
2023/11/17 11:34:01;;;;;;;0.10;0.10;;;10.70;71.50;;;;;;5020427;28;20026;-78
2023/11/17 11:36:27;;;;;;;3.42;0.20;;;10.90;69.10;;;;;;5022443;28;20018;-79
2023/11/17 11:38:52;;;;;;;0.10;0.00;;;11.00;69.80;;;;;;5020801;28;20036;-77
2023/11/17 11:41:24;;;;;;;0.00;0.00;;;11.10;72.10;;;;;;5019330;28;20030;-78
2023/11/17 11:43:51;;;;;;;0.28;0.28;;;11.20;69.50;;;;;;5019826;28;20022;-76
2023/11/17 11:46:19;;;;;;;0.08;0.08;;;11.30;68.10;;;;;;5020208;28;20046;-79
2023/11/17 11:48:51;;;;;;;0.20;0.20;;;11.40;68.10;;;;;;5018229;28;20037;-78
2023/11/17 11:51:22;;;;;;;0.15;0.15;;;11.50;68.90;;;;;;5021749;28;20026;-77
2023/11/17 11:53:56;;;;;;;0.10;0.10;;;11.50;68.00;;;;;;5021173;28;20579;-77
2023/11/17 11:56:32;;;;;;;0.10;0.10;;;11.50;67.20;;;;;;5019605;28;20049;-79
2023/11/17 11:58:59;;;;;;;0.57;0.38;;;11.30;65.10;;;;;;5018369;28;20115;-79
2023/11/17 12:01:32;;;;;;;0.10;0.10;;;11.20;66.40;;;;;;5019294;28;20119;-82
2023/11/17 12:04:00;;;;;;;0.15;0.15;;;11.10;65.40;;;;;;5018923;28;20029;-78
2023/11/17 12:06:28;;;;;;;1.38;0.10;;;11.10;66.00;;;;;;5018545;28;20033;-79
2023/11/17 12:09:08;;;;;;;1.08;0.25;;;11.00;66.20;;;;;;5016030;28;20018;-78
2023/11/17 12:11:44;;;;;;;0.32;0.17;;;11.00;65.40;;;;;;5014696;28;20654;-78
2023/11/17 12:14:12;;;;;;;0.55;0.10;;;11.00;66.80;;;;;;5016565;28;20026;-78
2023/11/17 12:16:38;;;;;;;0.40;0.20;;;11.10;65.50;;;;;;5016989;28;20030;-78
2023/11/17 12:19:08;;;;;;;0.10;0.10;;;11.10;65.30;;;;;;5016597;28;20504;-78
2023/11/17 12:21:40;;;;;;;0.10;0.10;;;11.00;66.10;;;;;;5015975;28;20141;-80
2023/11/17 12:24:15;;;;;;;0.65;0.30;;;10.80;67.00;;;;;;5015576;28;20153;-78
2023/11/17 12:26:42;;;;;;;4.65;0.40;;;10.50;66.10;;;;;;5019140;28;20056;-80
2023/11/17 12:29:11;;;;;;;0.10;0.10;;;10.50;65.90;;;;;;5016218;28;20400;-79
2023/11/17 12:31:38;;;;;;;0.10;0.10;;;10.30;66.30;;;;;;5015436;28;20116;-79
2023/11/17 12:34:07;;;;;;;0.20;0.20;;;10.30;66.50;;;;;;5014952;28;20080;-76
2023/11/17 12:36:35;;;;;;;0.10;0.10;;;10.20;66.60;;;;;;5015318;28;20021;-78
2023/11/17 12:39:11;;;;;;;0.35;0.20;;;10.30;67.60;;;;;;5016350;28;20061;-77
2023/11/17 12:41:38;;;;;;;1.00;0.20;;;10.90;72.90;;;;;;5017271;28;20026;-78
2023/11/17 12:44:05;;;;;;;0.43;0.17;;;11.10;71.60;;;;;;5016803;28;20052;-78
2023/11/17 12:46:31;;;;;;;0.10;0.10;;;11.00;70.10;;;;;;5015342;28;20488;-78
2023/11/17 12:48:58;;;;;;;0.20;0.20;;;10.80;67.30;;;;;;5014725;28;20112;-77
2023/11/17 12:51:24;;;;;;;0.28;0.28;;;10.50;68.50;;;;;;5014801;28;20022;-78
2023/11/17 12:53:51;;;;;;;0.40;0.10;;;10.30;64.60;;;;;;5014254;28;20028;-78
2023/11/17 12:56:17;;;;;;;0.45;0.38;;;10.00;66.80;;;;;;5014779;28;20053;-81
2023/11/17 12:58:43;;;;;;;0.82;0.20;;;9.90;65.20;;;;;;5014628;28;20030;-77